N3368K ENBO-ENVA
Flight info
| Callsign | N3368K |
|---|---|
| Flight time | 1h 29m |
| Altitude | 8000 |
| Route | DISMU DCT NUPGO |
| Aircraft | BE36/L-BDFGLORY/S |
Departure
| Time | 2026-05-04 19:37 |
|---|---|
| Airport | Bodø Airport (ENBO) |
Arrival
| Time | 2026-05-04 21:06 |
|---|---|
| Airport | Trondheim Airport, Værnes (ENVA) |
| Time | Latitude | Longitude | Altitude | Speed | Heading |
|---|---|---|---|---|---|
| 2026-05-04 19:21 | 67.27201 | 14.35993 | 36 ft | 0 kts | 354° |
| 2026-05-04 19:31 | 67.27192 | 14.35995 | 36 ft | 2 kts | 355° |
| 2026-05-04 19:31 | 67.27180 | 14.35987 | 36 ft | 0 kts | 71° |
| 2026-05-04 19:33 | 67.27169 | 14.36040 | 36 ft | 10 kts | 150° |
| 2026-05-04 19:34 | 67.27083 | 14.36125 | 36 ft | 16 kts | 172° |
| 2026-05-04 19:34 | 67.27035 | 14.36314 | 37 ft | 14 kts | 79° |
| 2026-05-04 19:34 | 67.27005 | 14.36478 | 37 ft | 6 kts | 162° |
| 2026-05-04 19:34 | 67.27004 | 14.36479 | 37 ft | 0 kts | 162° |
| 2026-05-04 19:35 | 67.27003 | 14.36479 | 37 ft | 1 kts | 162° |
| 2026-05-04 19:35 | 67.26942 | 14.36520 | 37 ft | 13 kts | 173° |
| 2026-05-04 19:35 | 67.26918 | 14.36492 | 36 ft | 0 kts | 255° |
| 2026-05-04 19:36 | 67.26916 | 14.36472 | 36 ft | 14 kts | 256° |
| 2026-05-04 19:36 | 67.26840 | 14.35578 | 41 ft | 80 kts | 256° |
| 2026-05-04 19:36 | 67.26651 | 14.33976 | 182 ft | 104 kts | 255° |
| 2026-05-04 19:36 | 67.26439 | 14.32120 | 574 ft | 107 kts | 265° |
| 2026-05-04 19:37 | 67.26372 | 14.30180 | 983 ft | 111 kts | 267° |
| 2026-05-04 19:37 | 67.26285 | 14.28175 | 1421 ft | 112 kts | 268° |
| 2026-05-04 19:37 | 67.26189 | 14.26180 | 1864 ft | 112 kts | 265° |
| 2026-05-04 19:37 | 67.26007 | 14.24216 | 2255 ft | 116 kts | 244° |
| 2026-05-04 19:38 | 67.25393 | 14.22794 | 2630 ft | 121 kts | 220° |
| 2026-05-04 19:38 | 67.24720 | 14.21477 | 3013 ft | 122 kts | 222° |
| 2026-05-04 19:38 | 67.24037 | 14.20169 | 3378 ft | 122 kts | 222° |
| 2026-05-04 19:38 | 67.23359 | 14.18883 | 3756 ft | 122 kts | 222° |
| 2026-05-04 19:39 | 67.22672 | 14.17581 | 4133 ft | 123 kts | 222° |
| 2026-05-04 19:39 | 67.21980 | 14.16266 | 4488 ft | 124 kts | 221° |
| 2026-05-04 19:39 | 67.21510 | 14.15375 | 4722 ft | 124 kts | 221° |
| 2026-05-04 19:39 | 67.20585 | 14.13625 | 5169 ft | 125 kts | 221° |
| 2026-05-04 19:40 | 67.19941 | 14.12172 | 5473 ft | 121 kts | 245° |
| 2026-05-04 19:40 | 67.19627 | 14.10183 | 5764 ft | 120 kts | 252° |
| 2026-05-04 19:40 | 67.19314 | 14.08166 | 5999 ft | 126 kts | 252° |
| 2026-05-04 19:40 | 67.19093 | 14.06707 | 6008 ft | 138 kts | 252° |
| 2026-05-04 19:41 | 67.18737 | 14.04284 | 6022 ft | 150 kts | 252° |
| 2026-05-04 19:41 | 67.18379 | 14.01874 | 6392 ft | 133 kts | 252° |
| 2026-05-04 19:41 | 67.18053 | 13.99734 | 6760 ft | 126 kts | 252° |
| 2026-05-04 19:41 | 67.17732 | 13.97610 | 6984 ft | 127 kts | 252° |
| 2026-05-04 19:42 | 67.17412 | 13.95486 | 7222 ft | 128 kts | 252° |
| 2026-05-04 19:42 | 67.17095 | 13.93379 | 7456 ft | 128 kts | 252° |
| 2026-05-04 19:42 | 67.16774 | 13.91238 | 7694 ft | 128 kts | 252° |
| 2026-05-04 19:42 | 67.16452 | 13.89087 | 7920 ft | 129 kts | 252° |
| 2026-05-04 19:43 | 67.15998 | 13.87056 | 8018 ft | 142 kts | 222° |
| 2026-05-04 19:43 | 67.15030 | 13.86068 | 8033 ft | 156 kts | 202° |
| 2026-05-04 19:43 | 67.13990 | 13.85146 | 8130 ft | 157 kts | 203° |
| 2026-05-04 19:43 | 67.13004 | 13.84336 | 8486 ft | 143 kts | 202° |
| 2026-05-04 19:44 | 67.12052 | 13.83558 | 8644 ft | 144 kts | 202° |
| 2026-05-04 19:44 | 67.11093 | 13.82776 | 8793 ft | 145 kts | 202° |
| 2026-05-04 19:44 | 67.10131 | 13.81995 | 8937 ft | 145 kts | 202° |
| 2026-05-04 19:44 | 67.09160 | 13.81207 | 9015 ft | 149 kts | 202° |
| 2026-05-04 19:45 | 67.08150 | 13.80382 | 9026 ft | 155 kts | 202° |
| 2026-05-04 19:45 | 67.07104 | 13.79536 | 9034 ft | 159 kts | 202° |
| 2026-05-04 19:45 | 67.06038 | 13.78675 | 9033 ft | 161 kts | 201° |
| 2026-05-04 19:45 | 67.04955 | 13.77801 | 9033 ft | 164 kts | 202° |
| 2026-05-04 19:46 | 67.03864 | 13.76921 | 9036 ft | 165 kts | 201° |
| 2026-05-04 19:46 | 67.02775 | 13.76039 | 9010 ft | 168 kts | 201° |
| 2026-05-04 19:46 | 67.01640 | 13.75124 | 8876 ft | 173 kts | 201° |
| 2026-05-04 19:46 | 67.00463 | 13.74177 | 8741 ft | 177 kts | 201° |
| 2026-05-04 19:47 | 66.99297 | 13.73239 | 8616 ft | 179 kts | 201° |
| 2026-05-04 19:47 | 66.98121 | 13.72299 | 8611 ft | 175 kts | 201° |
| 2026-05-04 19:47 | 66.96967 | 13.71374 | 8609 ft | 173 kts | 201° |
| 2026-05-04 19:47 | 66.95827 | 13.70459 | 8607 ft | 171 kts | 201° |
| 2026-05-04 19:48 | 66.94680 | 13.69541 | 8601 ft | 170 kts | 203° |
| 2026-05-04 19:48 | 66.93564 | 13.68647 | 8602 ft | 171 kts | 203° |
| 2026-05-04 19:48 | 66.92420 | 13.67723 | 8602 ft | 173 kts | 203° |
| 2026-05-04 19:48 | 66.91269 | 13.66810 | 8600 ft | 173 kts | 202° |
| 2026-05-04 19:49 | 66.90120 | 13.65898 | 8608 ft | 173 kts | 202° |
| 2026-05-04 19:49 | 66.88965 | 13.64981 | 8606 ft | 174 kts | 202° |
| 2026-05-04 19:49 | 66.87818 | 13.64061 | 8604 ft | 173 kts | 203° |
| 2026-05-04 19:49 | 66.86671 | 13.63148 | 8604 ft | 172 kts | 202° |
| 2026-05-04 19:50 | 66.85531 | 13.62241 | 8601 ft | 172 kts | 202° |
| 2026-05-04 19:50 | 66.84385 | 13.61332 | 8601 ft | 173 kts | 202° |
| 2026-05-04 19:50 | 66.83240 | 13.60422 | 8601 ft | 173 kts | 202° |
| 2026-05-04 19:50 | 66.82095 | 13.59517 | 8604 ft | 172 kts | 203° |
| 2026-05-04 19:51 | 66.80952 | 13.58613 | 8608 ft | 172 kts | 202° |
| 2026-05-04 19:51 | 66.79812 | 13.57708 | 8610 ft | 172 kts | 202° |
| 2026-05-04 19:51 | 66.78664 | 13.56802 | 8608 ft | 173 kts | 203° |
| 2026-05-04 19:51 | 66.77514 | 13.55895 | 8609 ft | 173 kts | 202° |
| 2026-05-04 19:52 | 66.76362 | 13.54987 | 8606 ft | 173 kts | 202° |
| 2026-05-04 19:52 | 66.75222 | 13.54088 | 8606 ft | 172 kts | 202° |
| 2026-05-04 19:52 | 66.74074 | 13.53186 | 8607 ft | 172 kts | 202° |
| 2026-05-04 19:52 | 66.72933 | 13.52287 | 8605 ft | 172 kts | 202° |
| 2026-05-04 19:53 | 66.71793 | 13.51392 | 8610 ft | 172 kts | 203° |
| 2026-05-04 19:53 | 66.70643 | 13.50488 | 8610 ft | 172 kts | 202° |
| 2026-05-04 19:53 | 66.69498 | 13.49592 | 8611 ft | 172 kts | 202° |
| 2026-05-04 19:53 | 66.68350 | 13.48693 | 8612 ft | 173 kts | 202° |
| 2026-05-04 19:54 | 66.67202 | 13.47795 | 8610 ft | 172 kts | 203° |
| 2026-05-04 19:54 | 66.66073 | 13.46912 | 8610 ft | 172 kts | 203° |
| 2026-05-04 19:54 | 66.64927 | 13.46010 | 8610 ft | 173 kts | 203° |
| 2026-05-04 19:54 | 66.63779 | 13.45118 | 8608 ft | 173 kts | 202° |
| 2026-05-04 19:55 | 66.62626 | 13.44228 | 8614 ft | 172 kts | 203° |
| 2026-05-04 19:55 | 66.61480 | 13.43318 | 8607 ft | 172 kts | 203° |
| 2026-05-04 19:55 | 66.60335 | 13.42445 | 8614 ft | 171 kts | 203° |
| 2026-05-04 19:55 | 66.59189 | 13.41556 | 8618 ft | 173 kts | 203° |
| 2026-05-04 19:56 | 66.58034 | 13.40653 | 8623 ft | 174 kts | 203° |
| 2026-05-04 19:56 | 66.56880 | 13.39757 | 8621 ft | 174 kts | 203° |
| 2026-05-04 19:56 | 66.55726 | 13.38863 | 8624 ft | 173 kts | 203° |
| 2026-05-04 19:56 | 66.54567 | 13.37966 | 8625 ft | 174 kts | 203° |
| 2026-05-04 19:57 | 66.53409 | 13.37068 | 8629 ft | 175 kts | 203° |
| 2026-05-04 19:57 | 66.52236 | 13.36163 | 8626 ft | 176 kts | 203° |
| 2026-05-04 19:57 | 66.51064 | 13.35257 | 8623 ft | 176 kts | 203° |
| 2026-05-04 19:57 | 66.49887 | 13.34351 | 8624 ft | 177 kts | 203° |
| 2026-05-04 19:58 | 66.48713 | 13.33445 | 8622 ft | 176 kts | 202° |
| 2026-05-04 19:58 | 66.47536 | 13.32541 | 8621 ft | 177 kts | 202° |
| 2026-05-04 19:58 | 66.46361 | 13.31636 | 8622 ft | 176 kts | 203° |
| 2026-05-04 19:58 | 66.45206 | 13.30751 | 8627 ft | 176 kts | 202° |
| 2026-05-04 19:59 | 66.44029 | 13.29847 | 8626 ft | 177 kts | 202° |
| 2026-05-04 19:59 | 66.42855 | 13.28949 | 8630 ft | 177 kts | 202° |
| 2026-05-04 19:59 | 66.41667 | 13.28036 | 8625 ft | 178 kts | 202° |
| 2026-05-04 19:59 | 66.40486 | 13.27132 | 8628 ft | 177 kts | 202° |
| 2026-05-04 20:00 | 66.39307 | 13.26232 | 8622 ft | 176 kts | 203° |
| 2026-05-04 20:00 | 66.38131 | 13.25340 | 8622 ft | 177 kts | 202° |
| 2026-05-04 20:00 | 66.36971 | 13.24440 | 8611 ft | 172 kts | 203° |
| 2026-05-04 20:00 | 66.35826 | 13.23575 | 8629 ft | 173 kts | 202° |
| 2026-05-04 20:01 | 66.34666 | 13.22697 | 8632 ft | 176 kts | 203° |
| 2026-05-04 20:01 | 66.33491 | 13.21799 | 8623 ft | 176 kts | 202° |
| 2026-05-04 20:01 | 66.32318 | 13.20909 | 8619 ft | 176 kts | 202° |
| 2026-05-04 20:01 | 66.31149 | 13.20023 | 8618 ft | 175 kts | 202° |
| 2026-05-04 20:02 | 66.30003 | 13.19154 | 8620 ft | 174 kts | 202° |
| 2026-05-04 20:02 | 66.28824 | 13.18260 | 8620 ft | 176 kts | 202° |
| 2026-05-04 20:02 | 66.27650 | 13.17369 | 8620 ft | 177 kts | 202° |
| 2026-05-04 20:02 | 66.26475 | 13.16480 | 8621 ft | 177 kts | 202° |
| 2026-05-04 20:03 | 66.25293 | 13.15588 | 8620 ft | 178 kts | 202° |
| 2026-05-04 20:03 | 66.24105 | 13.14692 | 8622 ft | 179 kts | 202° |
| 2026-05-04 20:03 | 66.22912 | 13.13791 | 8625 ft | 179 kts | 202° |
| 2026-05-04 20:03 | 66.21711 | 13.12885 | 8629 ft | 181 kts | 202° |
| 2026-05-04 20:04 | 66.20512 | 13.11985 | 8631 ft | 183 kts | 201° |
| 2026-05-04 20:04 | 66.19302 | 13.11076 | 8623 ft | 180 kts | 202° |
| 2026-05-04 20:04 | 66.18109 | 13.10185 | 8626 ft | 179 kts | 202° |
| 2026-05-04 20:04 | 66.16916 | 13.09286 | 8625 ft | 179 kts | 202° |
| 2026-05-04 20:05 | 66.15728 | 13.08392 | 8625 ft | 178 kts | 202° |
| 2026-05-04 20:05 | 66.14540 | 13.07505 | 8624 ft | 178 kts | 202° |
| 2026-05-04 20:05 | 66.13351 | 13.06616 | 8626 ft | 179 kts | 202° |
| 2026-05-04 20:05 | 66.12168 | 13.05734 | 8625 ft | 175 kts | 202° |
| 2026-05-04 20:06 | 66.11002 | 13.04871 | 8629 ft | 176 kts | 202° |
| 2026-05-04 20:06 | 66.09836 | 13.04014 | 8617 ft | 173 kts | 203° |
| 2026-05-04 20:06 | 66.08689 | 13.03138 | 8632 ft | 173 kts | 203° |
| 2026-05-04 20:06 | 66.07533 | 13.02273 | 8637 ft | 174 kts | 203° |
| 2026-05-04 20:07 | 66.06373 | 13.01412 | 8639 ft | 174 kts | 202° |
| 2026-05-04 20:07 | 66.05212 | 13.00550 | 8640 ft | 175 kts | 202° |
| 2026-05-04 20:07 | 66.04044 | 12.99683 | 8644 ft | 175 kts | 202° |
| 2026-05-04 20:07 | 66.02875 | 12.98816 | 8646 ft | 176 kts | 202° |
| 2026-05-04 20:08 | 66.01701 | 12.97946 | 8640 ft | 177 kts | 202° |
| 2026-05-04 20:08 | 66.00516 | 12.97067 | 8642 ft | 178 kts | 202° |
| 2026-05-04 20:08 | 65.99325 | 12.96188 | 8645 ft | 180 kts | 201° |
| 2026-05-04 20:08 | 65.98129 | 12.95306 | 8642 ft | 179 kts | 202° |
| 2026-05-04 20:09 | 65.96947 | 12.94439 | 8645 ft | 177 kts | 202° |
| 2026-05-04 20:09 | 65.95772 | 12.93568 | 8644 ft | 177 kts | 202° |
| 2026-05-04 20:09 | 65.94592 | 12.92698 | 8645 ft | 177 kts | 202° |
| 2026-05-04 20:09 | 65.93415 | 12.91831 | 8643 ft | 177 kts | 202° |
| 2026-05-04 20:10 | 65.92257 | 12.90982 | 8648 ft | 174 kts | 201° |
| 2026-05-04 20:10 | 65.91079 | 12.90122 | 8646 ft | 174 kts | 201° |
| 2026-05-04 20:10 | 65.89922 | 12.89270 | 8650 ft | 175 kts | 202° |
| 2026-05-04 20:10 | 65.88749 | 12.88403 | 8648 ft | 176 kts | 202° |
| 2026-05-04 20:11 | 65.87586 | 12.87552 | 8650 ft | 177 kts | 201° |
| 2026-05-04 20:11 | 65.86406 | 12.86691 | 8650 ft | 177 kts | 201° |
| 2026-05-04 20:11 | 65.85221 | 12.85824 | 8654 ft | 179 kts | 201° |
| 2026-05-04 20:11 | 65.84030 | 12.84954 | 8652 ft | 178 kts | 201° |
| 2026-05-04 20:12 | 65.82845 | 12.84092 | 8653 ft | 178 kts | 201° |
| 2026-05-04 20:12 | 65.81656 | 12.83224 | 8651 ft | 178 kts | 201° |
| 2026-05-04 20:12 | 65.80469 | 12.82361 | 8652 ft | 178 kts | 201° |
| 2026-05-04 20:12 | 65.79284 | 12.81498 | 8651 ft | 178 kts | 202° |
| 2026-05-04 20:13 | 65.78096 | 12.80635 | 8649 ft | 178 kts | 201° |
| 2026-05-04 20:13 | 65.76925 | 12.79785 | 8646 ft | 177 kts | 201° |
| 2026-05-04 20:13 | 65.75746 | 12.78927 | 8651 ft | 178 kts | 201° |
| 2026-05-04 20:13 | 65.74560 | 12.78068 | 8647 ft | 178 kts | 201° |
| 2026-05-04 20:14 | 65.73367 | 12.77206 | 8645 ft | 178 kts | 201° |
| 2026-05-04 20:14 | 65.72179 | 12.76348 | 8645 ft | 179 kts | 201° |
| 2026-05-04 20:14 | 65.70985 | 12.75484 | 8636 ft | 179 kts | 200° |
| 2026-05-04 20:14 | 65.69787 | 12.74618 | 8637 ft | 181 kts | 200° |
| 2026-05-04 20:15 | 65.68580 | 12.73747 | 8638 ft | 182 kts | 200° |
| 2026-05-04 20:15 | 65.67369 | 12.72875 | 8635 ft | 181 kts | 200° |
| 2026-05-04 20:15 | 65.66159 | 12.72006 | 8634 ft | 181 kts | 200° |
| 2026-05-04 20:15 | 65.64961 | 12.71146 | 8640 ft | 178 kts | 200° |
| 2026-05-04 20:16 | 65.63769 | 12.70290 | 8642 ft | 179 kts | 200° |
| 2026-05-04 20:16 | 65.62571 | 12.69428 | 8642 ft | 180 kts | 200° |
| 2026-05-04 20:16 | 65.61376 | 12.68569 | 8647 ft | 180 kts | 200° |
| 2026-05-04 20:16 | 65.60174 | 12.67707 | 8648 ft | 181 kts | 200° |
| 2026-05-04 20:17 | 65.58962 | 12.66843 | 8643 ft | 181 kts | 200° |
| 2026-05-04 20:17 | 65.57767 | 12.65992 | 8657 ft | 180 kts | 200° |
| 2026-05-04 20:17 | 65.56557 | 12.65124 | 8655 ft | 181 kts | 200° |
| 2026-05-04 20:17 | 65.55352 | 12.64262 | 8653 ft | 181 kts | 200° |
| 2026-05-04 20:18 | 65.54148 | 12.63405 | 8658 ft | 181 kts | 200° |
| 2026-05-04 20:18 | 65.52949 | 12.62554 | 8655 ft | 177 kts | 200° |
| 2026-05-04 20:18 | 65.51766 | 12.61713 | 8660 ft | 179 kts | 200° |
| 2026-05-04 20:18 | 65.50566 | 12.60856 | 8663 ft | 181 kts | 200° |
| 2026-05-04 20:19 | 65.49359 | 12.59998 | 8659 ft | 180 kts | 200° |
| 2026-05-04 20:19 | 65.48157 | 12.59144 | 8666 ft | 181 kts | 200° |
| 2026-05-04 20:19 | 65.46950 | 12.58292 | 8664 ft | 180 kts | 200° |
| 2026-05-04 20:19 | 65.45746 | 12.57441 | 8664 ft | 180 kts | 200° |
| 2026-05-04 20:20 | 65.44548 | 12.56591 | 8665 ft | 180 kts | 200° |
| 2026-05-04 20:20 | 65.43343 | 12.55740 | 8664 ft | 180 kts | 200° |
| 2026-05-04 20:20 | 65.42140 | 12.54891 | 8665 ft | 180 kts | 200° |
| 2026-05-04 20:20 | 65.40940 | 12.54044 | 8656 ft | 179 kts | 200° |
| 2026-05-04 20:21 | 65.39741 | 12.53199 | 8656 ft | 180 kts | 199° |
| 2026-05-04 20:21 | 65.38539 | 12.52352 | 8638 ft | 180 kts | 199° |
| 2026-05-04 20:21 | 65.36128 | 12.50656 | 8638 ft | 181 kts | 199° |
| 2026-05-04 20:22 | 65.34918 | 12.49808 | 8638 ft | 181 kts | 199° |
| 2026-05-04 20:22 | 65.33709 | 12.48961 | 8640 ft | 181 kts | 199° |
| 2026-05-04 20:22 | 65.32499 | 12.48111 | 8640 ft | 182 kts | 199° |
| 2026-05-04 20:22 | 65.31299 | 12.47272 | 8640 ft | 182 kts | 199° |
| 2026-05-04 20:23 | 65.30083 | 12.46422 | 8640 ft | 182 kts | 199° |
| 2026-05-04 20:23 | 65.28869 | 12.45573 | 8638 ft | 182 kts | 199° |
| 2026-05-04 20:23 | 65.27651 | 12.44724 | 8641 ft | 182 kts | 199° |
| 2026-05-04 20:23 | 65.26440 | 12.43878 | 8637 ft | 181 kts | 199° |
| 2026-05-04 20:24 | 65.25619 | 12.43309 | 8640 ft | 181 kts | 199° |
| 2026-05-04 20:24 | 65.24406 | 12.42464 | 8644 ft | 182 kts | 199° |
| 2026-05-04 20:24 | 65.23192 | 12.41617 | 8642 ft | 182 kts | 199° |
| 2026-05-04 20:24 | 65.21990 | 12.40782 | 8647 ft | 182 kts | 199° |
| 2026-05-04 20:25 | 65.20757 | 12.39928 | 8644 ft | 182 kts | 199° |
| 2026-05-04 20:25 | 65.19557 | 12.39096 | 8643 ft | 182 kts | 199° |
| 2026-05-04 20:25 | 65.18347 | 12.38256 | 8645 ft | 181 kts | 199° |
| 2026-05-04 20:25 | 65.17130 | 12.37413 | 8646 ft | 183 kts | 199° |
| 2026-05-04 20:26 | 65.15905 | 12.36567 | 8643 ft | 183 kts | 199° |
| 2026-05-04 20:26 | 65.14687 | 12.35725 | 8644 ft | 182 kts | 199° |
| 2026-05-04 20:26 | 65.13475 | 12.34890 | 8644 ft | 182 kts | 199° |
| 2026-05-04 20:26 | 65.12258 | 12.34050 | 8643 ft | 181 kts | 199° |
| 2026-05-04 20:27 | 65.11049 | 12.33216 | 8642 ft | 181 kts | 199° |
| 2026-05-04 20:27 | 65.09841 | 12.32387 | 8642 ft | 180 kts | 200° |
| 2026-05-04 20:27 | 65.08645 | 12.31562 | 8643 ft | 179 kts | 200° |
| 2026-05-04 20:27 | 65.07479 | 12.30761 | 8643 ft | 179 kts | 200° |
| 2026-05-04 20:28 | 65.06272 | 12.29934 | 8642 ft | 179 kts | 200° |
| 2026-05-04 20:28 | 65.05045 | 12.29092 | 8643 ft | 181 kts | 200° |
| 2026-05-04 20:28 | 65.03836 | 12.28262 | 8641 ft | 181 kts | 200° |
| 2026-05-04 20:28 | 65.02664 | 12.27461 | 8644 ft | 180 kts | 200° |
| 2026-05-04 20:29 | 65.01441 | 12.26625 | 8646 ft | 180 kts | 200° |
| 2026-05-04 20:29 | 65.00240 | 12.25805 | 8642 ft | 179 kts | 200° |
| 2026-05-04 20:29 | 64.99041 | 12.24988 | 8648 ft | 179 kts | 200° |
| 2026-05-04 20:29 | 64.97837 | 12.24164 | 8651 ft | 180 kts | 200° |
| 2026-05-04 20:30 | 64.96633 | 12.23347 | 8648 ft | 181 kts | 200° |
| 2026-05-04 20:30 | 64.95427 | 12.22524 | 8648 ft | 179 kts | 200° |
| 2026-05-04 20:30 | 64.94228 | 12.21709 | 8647 ft | 179 kts | 200° |
| 2026-05-04 20:30 | 64.93027 | 12.20894 | 8649 ft | 179 kts | 200° |
| 2026-05-04 20:31 | 64.91825 | 12.20077 | 8649 ft | 180 kts | 200° |
| 2026-05-04 20:31 | 64.90616 | 12.19258 | 8649 ft | 181 kts | 200° |
| 2026-05-04 20:31 | 64.89412 | 12.18443 | 8649 ft | 178 kts | 200° |
| 2026-05-04 20:31 | 64.88223 | 12.17639 | 8652 ft | 179 kts | 200° |
| 2026-05-04 20:32 | 64.87025 | 12.16822 | 8652 ft | 179 kts | 200° |
| 2026-05-04 20:32 | 64.85826 | 12.16018 | 8661 ft | 180 kts | 200° |
| 2026-05-04 20:32 | 64.84619 | 12.15202 | 8661 ft | 181 kts | 200° |
| 2026-05-04 20:32 | 64.83407 | 12.14385 | 8659 ft | 181 kts | 200° |
| 2026-05-04 20:33 | 64.82204 | 12.13577 | 8658 ft | 179 kts | 200° |
| 2026-05-04 20:33 | 64.81002 | 12.12768 | 8658 ft | 179 kts | 200° |
| 2026-05-04 20:33 | 64.79803 | 12.11959 | 8650 ft | 180 kts | 200° |
| 2026-05-04 20:33 | 64.78601 | 12.11153 | 8649 ft | 180 kts | 200° |
| 2026-05-04 20:34 | 64.77400 | 12.10347 | 8657 ft | 179 kts | 200° |
| 2026-05-04 20:34 | 64.76216 | 12.09553 | 8652 ft | 179 kts | 200° |
| 2026-05-04 20:34 | 64.75019 | 12.08750 | 8652 ft | 178 kts | 200° |
| 2026-05-04 20:34 | 64.73834 | 12.07958 | 8663 ft | 177 kts | 200° |
| 2026-05-04 20:35 | 64.72644 | 12.07164 | 8663 ft | 178 kts | 200° |
| 2026-05-04 20:35 | 64.71454 | 12.06367 | 8660 ft | 177 kts | 200° |
| 2026-05-04 20:35 | 64.70272 | 12.05578 | 8662 ft | 177 kts | 200° |
| 2026-05-04 20:35 | 64.69082 | 12.04782 | 8662 ft | 177 kts | 200° |
| 2026-05-04 20:36 | 64.67894 | 12.03993 | 8666 ft | 177 kts | 200° |
| 2026-05-04 20:36 | 64.66707 | 12.03206 | 8669 ft | 177 kts | 200° |
| 2026-05-04 20:36 | 64.65535 | 12.02425 | 8669 ft | 177 kts | 200° |
| 2026-05-04 20:36 | 64.64347 | 12.01634 | 8675 ft | 177 kts | 200° |
| 2026-05-04 20:37 | 64.63169 | 12.00853 | 8676 ft | 176 kts | 200° |
| 2026-05-04 20:37 | 64.61993 | 12.00072 | 8678 ft | 175 kts | 200° |
| 2026-05-04 20:37 | 64.60817 | 11.99294 | 8681 ft | 175 kts | 200° |
| 2026-05-04 20:37 | 64.59641 | 11.98514 | 8681 ft | 177 kts | 200° |
| 2026-05-04 20:38 | 64.58457 | 11.97731 | 8679 ft | 176 kts | 200° |
| 2026-05-04 20:38 | 64.57282 | 11.96959 | 8683 ft | 175 kts | 200° |
| 2026-05-04 20:38 | 64.56106 | 11.96178 | 8683 ft | 175 kts | 200° |
| 2026-05-04 20:38 | 64.54929 | 11.95401 | 8684 ft | 176 kts | 200° |
| 2026-05-04 20:39 | 64.53746 | 11.94622 | 8685 ft | 177 kts | 200° |
| 2026-05-04 20:39 | 64.52576 | 11.93851 | 8687 ft | 177 kts | 200° |
| 2026-05-04 20:39 | 64.51390 | 11.93070 | 8685 ft | 177 kts | 200° |
| 2026-05-04 20:39 | 64.50201 | 11.92289 | 8686 ft | 177 kts | 200° |
| 2026-05-04 20:40 | 64.49014 | 11.91510 | 8678 ft | 177 kts | 200° |
| 2026-05-04 20:40 | 64.47818 | 11.90727 | 8685 ft | 176 kts | 200° |
| 2026-05-04 20:40 | 64.46654 | 11.89962 | 8686 ft | 177 kts | 200° |
| 2026-05-04 20:40 | 64.45466 | 11.89184 | 8686 ft | 177 kts | 200° |
| 2026-05-04 20:41 | 64.44279 | 11.88408 | 8681 ft | 177 kts | 200° |
| 2026-05-04 20:41 | 64.43091 | 11.87631 | 8683 ft | 177 kts | 200° |
| 2026-05-04 20:41 | 64.41909 | 11.86860 | 8684 ft | 176 kts | 200° |
| 2026-05-04 20:41 | 64.40733 | 11.86093 | 8685 ft | 176 kts | 200° |
| 2026-05-04 20:42 | 64.39557 | 11.85327 | 8682 ft | 175 kts | 200° |
| 2026-05-04 20:42 | 64.38384 | 11.84562 | 8684 ft | 175 kts | 200° |
| 2026-05-04 20:42 | 64.37217 | 11.83801 | 8685 ft | 174 kts | 200° |
| 2026-05-04 20:42 | 64.36045 | 11.83038 | 8682 ft | 175 kts | 200° |
| 2026-05-04 20:43 | 64.34874 | 11.82279 | 8682 ft | 175 kts | 200° |
| 2026-05-04 20:43 | 64.33705 | 11.81521 | 8680 ft | 174 kts | 199° |
| 2026-05-04 20:43 | 64.32544 | 11.80768 | 8683 ft | 174 kts | 200° |
| 2026-05-04 20:43 | 64.31374 | 11.80009 | 8683 ft | 174 kts | 200° |
| 2026-05-04 20:44 | 64.30205 | 11.79250 | 8677 ft | 175 kts | 200° |
| 2026-05-04 20:44 | 64.29040 | 11.78497 | 8686 ft | 175 kts | 200° |
| 2026-05-04 20:44 | 64.27864 | 11.77740 | 8686 ft | 176 kts | 200° |
| 2026-05-04 20:44 | 64.26686 | 11.76977 | 8683 ft | 176 kts | 200° |
| 2026-05-04 20:45 | 64.25512 | 11.76222 | 8681 ft | 175 kts | 200° |
| 2026-05-04 20:45 | 64.24339 | 11.75464 | 8687 ft | 175 kts | 200° |
| 2026-05-04 20:45 | 64.23163 | 11.74706 | 8684 ft | 175 kts | 200° |
| 2026-05-04 20:45 | 64.21990 | 11.73953 | 8686 ft | 175 kts | 200° |
| 2026-05-04 20:46 | 64.20819 | 11.73201 | 8686 ft | 175 kts | 200° |
| 2026-05-04 20:46 | 64.19646 | 11.72445 | 8681 ft | 175 kts | 200° |
| 2026-05-04 20:46 | 64.18474 | 11.71693 | 8684 ft | 174 kts | 200° |
| 2026-05-04 20:46 | 64.17305 | 11.70945 | 8681 ft | 174 kts | 200° |
| 2026-05-04 20:47 | 64.16139 | 11.70197 | 8684 ft | 174 kts | 200° |
| 2026-05-04 20:47 | 64.14971 | 11.69449 | 8677 ft | 174 kts | 200° |
| 2026-05-04 20:47 | 64.13801 | 11.68703 | 8686 ft | 174 kts | 199° |
| 2026-05-04 20:47 | 64.12654 | 11.67862 | 8688 ft | 173 kts | 206° |
| 2026-05-04 20:48 | 64.11534 | 11.66836 | 8690 ft | 173 kts | 206° |
| 2026-05-04 20:48 | 64.10427 | 11.65851 | 8691 ft | 173 kts | 205° |
| 2026-05-04 20:48 | 64.09301 | 11.64848 | 8691 ft | 174 kts | 205° |
| 2026-05-04 20:48 | 64.08175 | 11.63847 | 8692 ft | 174 kts | 205° |
| 2026-05-04 20:49 | 64.07048 | 11.62842 | 8689 ft | 174 kts | 206° |
| 2026-05-04 20:49 | 64.05924 | 11.61841 | 8679 ft | 173 kts | 206° |
| 2026-05-04 20:49 | 64.04803 | 11.60846 | 8684 ft | 173 kts | 205° |
| 2026-05-04 20:49 | 64.03681 | 11.59849 | 8684 ft | 172 kts | 205° |
| 2026-05-04 20:50 | 64.02565 | 11.58859 | 8683 ft | 172 kts | 206° |
| 2026-05-04 20:50 | 64.01448 | 11.57868 | 8693 ft | 172 kts | 205° |
| 2026-05-04 20:50 | 64.00334 | 11.56879 | 8694 ft | 172 kts | 205° |
| 2026-05-04 20:50 | 63.99218 | 11.55891 | 8694 ft | 172 kts | 206° |
| 2026-05-04 20:51 | 63.98103 | 11.54904 | 8693 ft | 172 kts | 205° |
| 2026-05-04 20:51 | 63.96986 | 11.53918 | 8694 ft | 172 kts | 205° |
| 2026-05-04 20:51 | 63.95865 | 11.52925 | 8694 ft | 173 kts | 205° |
| 2026-05-04 20:51 | 63.94745 | 11.51938 | 8695 ft | 173 kts | 205° |
| 2026-05-04 20:52 | 63.93622 | 11.50946 | 8686 ft | 173 kts | 205° |
| 2026-05-04 20:52 | 63.92501 | 11.49961 | 8683 ft | 173 kts | 205° |
| 2026-05-04 20:52 | 63.91376 | 11.48967 | 8572 ft | 179 kts | 205° |
| 2026-05-04 20:52 | 63.90206 | 11.47934 | 8407 ft | 181 kts | 206° |
| 2026-05-04 20:53 | 63.89015 | 11.46889 | 8244 ft | 182 kts | 205° |
| 2026-05-04 20:53 | 63.87830 | 11.45850 | 8076 ft | 183 kts | 205° |
| 2026-05-04 20:53 | 63.86653 | 11.44817 | 7910 ft | 184 kts | 205° |
| 2026-05-04 20:53 | 63.85460 | 11.43772 | 7739 ft | 183 kts | 205° |
| 2026-05-04 20:54 | 63.84275 | 11.42736 | 7562 ft | 183 kts | 205° |
| 2026-05-04 20:54 | 63.83089 | 11.41703 | 7399 ft | 182 kts | 205° |
| 2026-05-04 20:54 | 63.81915 | 11.40673 | 7233 ft | 181 kts | 205° |
| 2026-05-04 20:54 | 63.80746 | 11.39652 | 7069 ft | 179 kts | 205° |
| 2026-05-04 20:55 | 63.79587 | 11.38643 | 6904 ft | 177 kts | 205° |
| 2026-05-04 20:55 | 63.78455 | 11.37659 | 6843 ft | 170 kts | 205° |
| 2026-05-04 20:55 | 63.77372 | 11.36722 | 6817 ft | 165 kts | 205° |
| 2026-05-04 20:55 | 63.76292 | 11.35777 | 6688 ft | 168 kts | 205° |
| 2026-05-04 20:56 | 63.75146 | 11.35121 | 6535 ft | 171 kts | 195° |
| 2026-05-04 20:56 | 63.73972 | 11.34553 | 6381 ft | 173 kts | 196° |
| 2026-05-04 20:56 | 63.72794 | 11.33964 | 6220 ft | 175 kts | 196° |
| 2026-05-04 20:56 | 63.71602 | 11.33368 | 6054 ft | 175 kts | 196° |
| 2026-05-04 20:57 | 63.70413 | 11.32773 | 5890 ft | 175 kts | 196° |
| 2026-05-04 20:57 | 63.69221 | 11.32179 | 5725 ft | 176 kts | 196° |
| 2026-05-04 20:57 | 63.68024 | 11.31581 | 5563 ft | 177 kts | 196° |
| 2026-05-04 20:57 | 63.66824 | 11.30984 | 5400 ft | 177 kts | 196° |
| 2026-05-04 20:58 | 63.65627 | 11.30388 | 5246 ft | 176 kts | 196° |
| 2026-05-04 20:58 | 63.64432 | 11.29795 | 5084 ft | 176 kts | 195° |
| 2026-05-04 20:58 | 63.63237 | 11.29202 | 4918 ft | 176 kts | 196° |
| 2026-05-04 20:58 | 63.62037 | 11.28604 | 4756 ft | 177 kts | 196° |
| 2026-05-04 20:59 | 63.60832 | 11.28007 | 4596 ft | 178 kts | 196° |
| 2026-05-04 20:59 | 63.59623 | 11.27382 | 4432 ft | 178 kts | 201° |
| 2026-05-04 20:59 | 63.58437 | 11.26592 | 4302 ft | 178 kts | 201° |
| 2026-05-04 20:59 | 63.57254 | 11.25847 | 4167 ft | 175 kts | 201° |
| 2026-05-04 21:00 | 63.56095 | 11.25114 | 4041 ft | 171 kts | 201° |
| 2026-05-04 21:00 | 63.54958 | 11.24385 | 3904 ft | 170 kts | 201° |
| 2026-05-04 21:00 | 63.53810 | 11.23646 | 3697 ft | 173 kts | 201° |
| 2026-05-04 21:00 | 63.52648 | 11.22901 | 3492 ft | 173 kts | 201° |
| 2026-05-04 21:01 | 63.51504 | 11.22174 | 3294 ft | 169 kts | 201° |
| 2026-05-04 21:01 | 63.50375 | 11.21450 | 3089 ft | 168 kts | 201° |
| 2026-05-04 21:01 | 63.49248 | 11.20773 | 2882 ft | 168 kts | 201° |
| 2026-05-04 21:01 | 63.48235 | 11.19701 | 2662 ft | 154 kts | 217° |
| 2026-05-04 21:02 | 63.47437 | 11.18362 | 2512 ft | 136 kts | 230° |
| 2026-05-04 21:02 | 63.46851 | 11.16962 | 2428 ft | 117 kts | 239° |
| 2026-05-04 21:02 | 63.46407 | 11.15490 | 2302 ft | 115 kts | 248° |
| 2026-05-04 21:02 | 63.46061 | 11.13853 | 2203 ft | 112 kts | 256° |
| 2026-05-04 21:03 | 63.45842 | 11.12238 | 2204 ft | 106 kts | 263° |
| 2026-05-04 21:03 | 63.45727 | 11.10581 | 2092 ft | 114 kts | 270° |
| 2026-05-04 21:03 | 63.45725 | 11.08739 | 1831 ft | 122 kts | 275° |
| 2026-05-04 21:03 | 63.45733 | 11.06819 | 1553 ft | 124 kts | 271° |
| 2026-05-04 21:04 | 63.45737 | 11.04919 | 1277 ft | 121 kts | 270° |
| 2026-05-04 21:04 | 63.45741 | 11.03074 | 1014 ft | 121 kts | 269° |
| 2026-05-04 21:04 | 63.45745 | 11.01248 | 755 ft | 103 kts | 270° |
| 2026-05-04 21:04 | 63.45744 | 10.99824 | 620 ft | 83 kts | 268° |
| 2026-05-04 21:05 | 63.45743 | 10.98603 | 499 ft | 77 kts | 271° |
| 2026-05-04 21:05 | 63.45748 | 10.97389 | 390 ft | 77 kts | 271° |
| 2026-05-04 21:05 | 63.45748 | 10.96195 | 281 ft | 76 kts | 270° |
| 2026-05-04 21:05 | 63.45745 | 10.95039 | 150 ft | 74 kts | 270° |
| 2026-05-04 21:06 | 63.45749 | 10.93924 | 75 ft | 69 kts | 273° |
| 2026-05-04 21:06 | 63.45755 | 10.93005 | 54 ft | 34 kts | 268° |
| 2026-05-04 21:06 | 63.45760 | 10.92623 | 49 ft | 20 kts | 269° |
| 2026-05-04 21:06 | 63.45716 | 10.92412 | 47 ft | 14 kts | 189° |
| 2026-05-04 21:07 | 63.45649 | 10.92410 | 48 ft | 15 kts | 176° |
| 2026-05-04 21:07 | 63.45487 | 10.92426 | 49 ft | 19 kts | 178° |
| 2026-05-04 21:07 | 63.45395 | 10.92428 | 51 ft | 20 kts | 180° |
| 2026-05-04 21:07 | 63.45220 | 10.92451 | 53 ft | 14 kts | 153° |
| 2026-05-04 21:08 | 63.45208 | 10.92476 | 53 ft | 0 kts | 114° |